Time;durP1;ratioP1;P1;durP2;ratioP2;P2;SDS_P1;SDS_P2;PMS_P1;PMS_P2;Temp;Humidity;BMP_temperature;BMP_pressure;BME280_temperature;BME280_humidity;BME280_pressure;Samples;Min_cycle;Max_cycle;Signal;HPM_P1;HPM_P2
2023/10/28 00:01:41;;;;;;;1999.90;999.90;;;;;;;8.33;100.00;96510.13;18613442;31;20057;-59
2023/10/28 00:11:45;;;;;;;1999.90;999.90;;;;;;;8.47;100.00;96505.72;18634043;31;20072;-59
2023/10/28 00:21:47;;;;;;;1999.90;999.90;;;;;;;8.44;100.00;96517.03;18633248;31;20064;-59
2023/10/28 00:31:51;;;;;;;1999.90;999.90;;;;;;;8.31;100.00;96507.72;18618844;31;20060;-58
2023/10/28 00:41:53;;;;;;;1999.90;999.90;;;;;;;8.32;100.00;96506.62;18631812;31;20047;-58
2023/10/28 00:51:56;;;;;;;1999.90;999.90;;;;;;;8.29;100.00;96506.38;18617559;31;20360;-58
2023/10/28 01:01:58;;;;;;;1999.90;999.90;;;;;;;8.16;100.00;96507.84;18630753;31;20075;-59
2023/10/28 01:12:02;;;;;;;1999.90;999.90;;;;;;;8.19;100.00;96498.41;18603147;31;20048;-59
2023/10/28 01:22:05;;;;;;;1999.90;999.90;;;;;;;8.30;100.00;96491.84;18615695;31;20059;-59
2023/10/28 01:32:07;;;;;;;1999.90;999.90;;;;;;;8.27;100.00;96481.66;18628480;31;20048;-59
2023/10/28 01:42:13;;;;;;;1999.90;999.90;;;;;;;8.27;100.00;96487.03;18628244;31;21094;-59
2023/10/28 01:52:15;;;;;;;1999.90;999.90;;;;;;;8.19;100.00;96483.06;18621315;31;20467;-58
2023/10/28 02:02:18;;;;;;;1999.90;999.90;;;;;;;8.08;100.00;96460.81;18627426;31;20075;-59
2023/10/28 02:12:20;;;;;;;1999.90;999.90;;;;;;;8.19;100.00;96449.94;18626924;31;20052;-59
2023/10/28 02:22:23;;;;;;;1999.90;999.90;;;;;;;8.22;100.00;96450.19;18612051;31;20170;-58
2023/10/28 02:32:26;;;;;;;1999.90;999.90;;;;;;;8.35;100.00;96450.59;18625973;31;20048;-58
2023/10/28 02:42:28;;;;;;;1999.90;999.90;;;;;;;8.32;100.00;96465.44;18624963;31;20375;-59
2023/10/28 02:52:31;;;;;;;1999.90;999.90;;;;;;;8.35;100.00;96459.47;18625078;31;20067;-58
2023/10/28 03:02:33;;;;;;;1999.90;999.90;;;;;;;8.35;100.00;96454.09;18624729;31;20068;-59
2023/10/28 03:12:37;;;;;;;1999.90;999.90;;;;;;;8.44;100.00;96435.41;18624515;31;20065;-58
2023/10/28 03:22:39;;;;;;;1999.90;999.90;;;;;;;8.30;100.00;96432.59;18624329;31;20140;-58
2023/10/28 03:32:42;;;;;;;1999.90;999.90;;;;;;;8.04;100.00;96440.91;18624044;31;20056;-59
2023/10/28 03:42:44;;;;;;;1999.90;999.90;;;;;;;8.12;100.00;96434.13;18616649;31;20112;-59
2023/10/28 03:52:47;;;;;;;1999.90;999.90;;;;;;;8.18;100.00;96424.94;18628112;31;20075;-59
2023/10/28 04:02:52;;;;;;;1999.90;999.90;;;;;;;8.08;100.00;96428.50;18620909;31;20049;-59
2023/10/28 04:12:55;;;;;;;1999.90;999.90;;;;;;;7.81;100.00;96429.00;18634415;31;20052;-58
2023/10/28 04:22:57;;;;;;;1999.90;999.90;;;;;;;7.73;100.00;96430.44;18633445;31;20357;-59
2023/10/28 04:32:59;;;;;;;1999.90;999.90;;;;;;;7.55;100.00;96447.25;18632862;31;20115;-58
2023/10/28 04:43:04;;;;;;;1999.90;999.90;;;;;;;7.40;100.00;96442.78;18631645;31;20062;-59
2023/10/28 04:53:07;;;;;;;1999.90;999.90;;;;;;;7.37;100.00;96425.34;18632180;31;20096;-59
2023/10/28 05:03:09;;;;;;;1999.90;999.90;;;;;;;7.41;100.00;96439.03;18616860;31;20131;-58
2023/10/28 05:13:12;;;;;;;1999.90;999.90;;;;;;;7.34;100.00;96447.41;18630248;31;20072;-59
2023/10/28 05:23:14;;;;;;;1999.90;999.90;;;;;;;7.39;100.00;96452.75;18629479;31;20044;-59
2023/10/28 05:33:17;;;;;;;1999.90;999.90;;;;;;;7.46;100.00;96445.16;18622324;31;20056;-58
2023/10/28 05:43:19;;;;;;;1999.90;999.90;;;;;;;7.45;100.00;96438.19;18628052;31;20440;-59
2023/10/28 05:53:24;;;;;;;1999.90;999.90;;;;;;;7.35;100.00;96457.06;18628404;31;20053;-58
2023/10/28 06:03:26;;;;;;;1999.90;999.90;;;;;;;7.11;100.00;96452.38;18627450;31;20053;-58
2023/10/28 06:13:29;;;;;;;1999.90;999.90;;;;;;;6.97;100.00;96464.81;18612453;31;20052;-58
2023/10/28 06:23:32;;;;;;;1999.90;999.90;;;;;;;7.05;100.00;96463.44;18626186;31;20048;-58
2023/10/28 06:33:34;;;;;;;1999.90;999.90;;;;;;;7.21;100.00;96464.16;18626166;31;20389;-58
2023/10/28 06:43:37;;;;;;;1999.90;999.90;;;;;;;7.32;100.00;96476.47;18625033;31;20057;-58
2023/10/28 06:53:43;;;;;;;1999.90;999.90;;;;;;;7.39;100.00;96484.22;18625157;31;20075;-58
2023/10/28 07:03:47;;;;;;;1999.90;999.90;;;;;;;7.58;100.00;96487.06;18625043;31;20053;-59
2023/10/28 07:13:50;;;;;;;1999.90;999.90;;;;;;;7.85;100.00;96489.25;18624746;31;20087;-59
2023/10/28 07:23:52;;;;;;;1999.90;999.90;;;;;;;7.92;100.00;96486.25;18617481;31;20091;-58
2023/10/28 07:33:56;;;;;;;1999.90;999.90;;;;;;;8.00;100.00;96512.56;18622332;31;20075;-58
2023/10/28 07:43:59;;;;;;;1999.90;999.90;;;;;;;8.03;100.00;96533.56;18635623;31;20410;-58
2023/10/28 07:54:02;;;;;;;1999.90;999.90;;;;;;;8.26;100.00;96532.03;18635369;31;20104;-58
2023/10/28 08:04:05;;;;;;;1999.90;999.90;;;;;;;8.50;100.00;96535.84;18634709;31;20104;-59
2023/10/28 08:14:08;;;;;;;1999.90;999.90;;;;;;;8.84;100.00;96530.41;18634433;31;20426;-59
2023/10/28 08:24:15;;;;;;;1999.90;999.90;;;;;;;9.19;100.00;96541.84;18633310;31;20392;-58
2023/10/28 08:34:18;;;;;;;1999.90;999.90;;;;;;;9.57;100.00;96539.19;18633464;31;20092;-59
2023/10/28 08:44:27;;;;;;;1999.90;999.90;;;;;;;9.99;100.00;96537.50;18631713;31;20593;-59
2023/10/28 08:54:33;;;;;;;1999.90;999.90;;;;;;;10.16;100.00;96533.47;18631523;31;20087;-58
2023/10/28 09:04:35;;;;;;;1999.90;999.90;;;;;;;10.49;100.00;96523.47;18631071;31;20040;-58
2023/10/28 09:14:39;;;;;;;1999.90;999.90;;;;;;;10.79;100.00;96542.94;18623681;31;20127;-59
2023/10/28 09:24:46;;;;;;;1999.90;999.90;;;;;;;11.00;100.00;96534.44;18629592;31;20082;-58
2023/10/28 09:34:52;;;;;;;1999.90;999.90;;;;;;;11.21;100.00;96534.84;18614837;31;20052;-58
2023/10/28 09:44:56;;;;;;;1999.90;999.90;;;;;;;12.15;100.00;96531.69;18628072;31;20436;-59
2023/10/28 09:55:11;;;;;;;1999.90;999.90;;;;;;;12.53;100.00;96534.81;18613033;31;20435;-58
2023/10/28 10:05:23;;;;;;;1999.90;999.90;;;;;;;12.51;100.00;96533.53;18625033;31;20148;-58
2023/10/28 10:15:33;;;;;;;1999.90;999.90;;;;;;;12.56;100.00;96538.03;18609684;31;20364;-58
2023/10/28 10:25:41;;;;;;;1999.90;999.90;;;;;;;13.21;100.00;96542.78;18626628;31;20066;-58
2023/10/28 10:35:49;;;;;;;1999.90;999.90;;;;;;;13.42;100.00;96552.28;18625969;31;20047;-58
2023/10/28 10:45:54;;;;;;;1999.90;999.90;;;;;;;13.75;100.00;96544.50;18611047;31;20053;-59
2023/10/28 10:55:56;;;;;;;1999.90;999.90;;;;;;;13.40;100.00;96549.88;18610710;31;20091;-58
2023/10/28 11:06:00;;;;;;;1999.90;999.90;;;;;;;13.90;100.00;96543.25;18635855;31;20078;-59
2023/10/28 11:16:03;;;;;;;1999.90;999.90;;;;;;;14.09;100.00;96523.09;18637653;31;20056;-58
2023/10/28 11:26:07;;;;;;;1999.90;999.90;;;;;;;14.45;100.00;96520.00;18623348;31;20079;-58
2023/10/28 11:36:10;;;;;;;1999.90;999.90;;;;;;;14.43;100.00;96507.84;18636627;31;20066;-58
2023/10/28 11:46:13;;;;;;;1999.90;999.90;;;;;;;14.62;100.00;96496.59;18608255;31;20040;-58
2023/10/28 11:56:19;;;;;;;1999.90;999.90;;;;;;;15.24;100.00;96460.62;18633145;31;20437;-58
2023/10/28 12:06:22;;;;;;;1999.90;999.90;;;;;;;15.57;100.00;96448.25;18631375;31;20064;-58
2023/10/28 12:16:35;;;;;;;1999.90;999.90;;;;;;;16.19;100.00;96411.13;18633475;31;20069;-59
2023/10/28 12:26:41;;;;;;;1999.90;999.90;;;;;;;16.21;100.00;96419.78;18633807;31;20082;-58
2023/10/28 12:36:46;;;;;;;1999.90;999.90;;;;;;;16.59;100.00;96407.78;18632867;31;20056;-58
2023/10/28 12:46:49;;;;;;;1999.90;999.90;;;;;;;16.03;100.00;96404.72;18631761;31;20075;-58
2023/10/28 12:56:53;;;;;;;1999.90;999.90;;;;;;;16.00;100.00;96411.63;18631491;31;20124;-58
2023/10/28 13:06:59;;;;;;;1999.90;999.90;;;;;;;16.27;100.00;96404.78;18630937;31;20456;-58
2023/10/28 13:17:05;;;;;;;1999.90;999.90;;;;;;;15.78;100.00;96401.09;18630077;31;20053;-58
2023/10/28 13:27:15;;;;;;;1999.90;999.90;;;;;;;15.67;100.00;96401.50;18629604;31;20381;-58
2023/10/28 13:37:20;;;;;;;1999.90;999.90;;;;;;;15.59;100.00;96419.53;18614707;31;20049;-58
2023/10/28 13:47:22;;;;;;;1999.90;999.90;;;;;;;15.92;100.00;96432.41;18613554;31;20053;-58
2023/10/28 13:57:27;;;;;;;1999.90;999.90;;;;;;;16.34;100.00;96447.88;18627863;31;20428;-58
2023/10/28 14:07:31;;;;;;;1999.90;999.90;;;;;;;15.71;100.00;96456.13;18600003;31;20444;-58
2023/10/28 14:17:35;;;;;;;1999.90;999.90;;;;;;;15.33;100.00;96454.31;18612314;31;20091;-58
2023/10/28 14:27:38;;;;;;;1999.90;999.90;;;;;;;15.39;100.00;96470.16;18626409;31;20068;-58
2023/10/28 14:37:41;;;;;;;1999.90;999.90;;;;;;;14.99;100.00;96470.56;18611557;31;20099;-58
2023/10/28 14:47:47;;;;;;;1999.90;999.90;;;;;;;14.88;100.00;96472.03;18625029;31;20053;-59
2023/10/28 14:57:50;;;;;;;1999.90;999.90;;;;;;;14.74;100.00;96470.34;18610667;31;20097;-57
2023/10/28 15:08:11;;;;;;;1999.90;999.90;;;;;;;14.61;100.00;96448.75;18612716;31;20444;-58
2023/10/28 15:18:13;;;;;;;1999.90;999.90;;;;;;;14.20;100.00;96437.38;18610487;31;20416;-58
2023/10/28 15:28:16;;;;;;;1999.90;999.90;;;;;;;14.05;100.00;96435.97;18624061;31;20048;-59
2023/10/28 15:38:19;;;;;;;1999.90;999.90;;;;;;;14.00;100.00;96450.50;18602782;31;20193;-59
2023/10/28 15:48:22;;;;;;;1999.90;999.90;;;;;;;13.71;100.00;96438.41;18613057;31;20139;-59
2023/10/28 15:58:25;;;;;;;1999.90;999.90;;;;;;;13.22;100.00;96433.09;18635165;31;20091;-59
2023/10/28 16:08:28;;;;;;;1999.90;999.90;;;;;;;13.02;100.00;96444.56;18620415;31;20101;-58
2023/10/28 16:18:31;;;;;;;1999.90;999.90;;;;;;;13.00;100.00;96469.25;18619694;31;20139;-58
2023/10/28 16:28:34;;;;;;;1999.90;999.90;;;;;;;12.70;100.00;96451.94;18618827;31;20470;-58
2023/10/28 16:38:37;;;;;;;1999.90;999.90;;;;;;;12.45;100.00;96448.81;18604519;31;20064;-58
2023/10/28 16:48:40;;;;;;;1999.90;999.90;;;;;;;12.03;100.00;96438.25;18617544;31;20070;-59
2023/10/28 16:58:42;;;;;;;1999.90;999.90;;;;;;;11.96;100.00;96437.91;18631322;31;20064;-58
2023/10/28 17:08:45;;;;;;;1999.90;999.90;;;;;;;11.91;100.00;96445.28;18603963;31;20048;-58
2023/10/28 17:18:49;;;;;;;1999.90;999.90;;;;;;;11.92;100.00;96457.72;18630280;31;20079;-58
2023/10/28 17:28:53;;;;;;;;;;;;;;;11.94;100.00;96458.25;18609214;31;20449;-58
2023/10/28 17:38:57;;;;;;;1999.90;999.90;;;;;;;11.66;100.00;96471.87;18615142;31;19947;-58
2023/10/28 17:49:00;;;;;;;1999.90;999.90;;;;;;;11.40;100.00;96467.06;18627927;31;20067;-58
2023/10/28 17:59:03;;;;;;;1999.90;999.90;;;;;;;11.23;100.00;96475.78;18600833;31;20151;-58
2023/10/28 18:09:06;;;;;;;1999.90;999.90;;;;;;;11.31;100.00;96463.47;18612756;31;20044;-59
2023/10/28 18:19:09;;;;;;;1999.90;999.90;;;;;;;11.41;100.00;96463.22;18612472;31;20072;-58
2023/10/28 18:29:12;;;;;;;1999.90;999.90;;;;;;;11.44;100.00;96465.34;18625872;31;20118;-58
2023/10/28 18:39:14;;;;;;;1999.90;999.90;;;;;;;11.51;100.00;96452.19;18611740;31;20044;-58
2023/10/28 18:49:17;;;;;;;1999.90;999.90;;;;;;;11.59;100.00;96460.66;18558073;32;20501;-58
2023/10/28 18:59:20;;;;;;;1999.90;999.90;;;;;;;11.63;100.00;96457.03;18545641;32;20071;-58
2023/10/28 19:09:23;;;;;;;1999.90;999.90;;;;;;;11.52;100.00;96440.25;18558394;32;20139;-59
2023/10/28 19:19:26;;;;;;;1999.90;999.90;;;;;;;11.46;100.00;96438.75;18558184;32;20089;-58
2023/10/28 19:29:29;;;;;;;1999.90;999.90;;;;;;;11.42;100.00;96418.81;18570678;32;20087;-58
2023/10/28 19:39:32;;;;;;;1999.90;999.90;;;;;;;11.45;100.00;96418.22;18569978;32;20400;-58
2023/10/28 19:49:35;;;;;;;1999.90;999.90;;;;;;;11.45;100.00;96410.09;18568883;32;20494;-58
2023/10/28 19:59:38;;;;;;;1999.90;999.90;;;;;;;11.45;100.00;96404.66;18568497;32;20068;-58
2023/10/28 20:09:42;;;;;;;1999.90;999.90;;;;;;;11.45;100.00;96407.38;18555050;32;20096;-58
2023/10/28 20:19:45;;;;;;;1999.90;999.90;;;;;;;11.30;100.00;96399.62;18568230;31;20044;-59
2023/10/28 20:29:48;;;;;;;1999.90;999.90;;;;;;;11.10;100.00;96407.09;18553930;32;20120;-58
2023/10/28 20:39:50;;;;;;;1999.90;999.90;;;;;;;10.90;100.00;96392.09;18565870;32;20086;-58
2023/10/28 20:49:54;;;;;;;1999.90;999.90;;;;;;;10.87;100.00;96406.25;18552372;32;20060;-58
2023/10/28 20:59:58;;;;;;;;;;;;;;;10.87;100.00;96400.00;18552505;32;20064;-59
2023/10/28 21:10:01;;;;;;;1999.90;999.90;;;;;;;10.87;100.00;96395.44;18564649;31;19951;-58
2023/10/28 21:20:09;;;;;;;1999.90;999.90;;;;;;;11.07;100.00;96418.50;18564805;32;20426;-58
2023/10/28 21:30:13;;;;;;;1999.90;999.90;;;;;;;11.19;100.00;96407.16;18563006;32;20056;-58
2023/10/28 21:40:16;;;;;;;1999.90;999.90;;;;;;;11.38;100.00;96407.00;18563538;31;20368;-58
2023/10/28 21:50:19;;;;;;;1999.90;999.90;;;;;;;11.30;100.00;96411.22;18560557;32;20052;-59
2023/10/28 22:00:44;;;;;;;1999.90;999.90;;;;;;;11.11;100.00;96402.47;18562145;31;20064;-58
2023/10/28 22:10:45;;;;;;;1999.90;999.90;;;;;;;11.00;100.00;96408.12;18562399;31;20082;-58
2023/10/28 22:20:49;;;;;;;1999.90;999.90;;;;;;;10.78;100.00;96392.62;18547250;32;20061;-58
2023/10/28 22:30:52;;;;;;;1999.90;999.90;;;;;;;10.71;100.00;96402.25;18546510;32;20052;-59
2023/10/28 22:40:56;;;;;;;1999.90;999.90;;;;;;;10.54;100.00;96400.97;18559106;32;20564;-58
2023/10/28 22:51:01;;;;;;;1999.90;999.90;;;;;;;10.83;100.00;96362.78;18558834;32;20440;-58
2023/10/28 23:01:04;;;;;;;1999.90;999.90;;;;;;;10.62;100.00;96348.91;18568502;32;20060;-58
2023/10/28 23:11:07;;;;;;;1999.90;999.90;;;;;;;10.66;100.00;96360.72;18558566;32;20075;-58
2023/10/28 23:21:10;;;;;;;1999.90;999.90;;;;;;;10.64;100.00;96349.38;18558416;32;20044;-58
2023/10/28 23:31:12;;;;;;;1999.90;999.90;;;;;;;10.47;100.00;96331.09;18557282;32;20056;-58
2023/10/28 23:41:16;;;;;;;1999.90;999.90;;;;;;;10.21;100.00;96338.06;18570308;31;20078;-58
2023/10/28 23:51:18;;;;;;;1999.90;999.90;;;;;;;10.11;100.00;96339.91;18614121;31;20066;-58
